Terminal Aerodrome Forecast
Issued by NWS

Current Version | Previous Version | Text Only | Print | Product List | Glossary Off
Versions: 1 2 3 4 5 6 7 8 9 10 11 12 13 14 15 16 17 18 19 20 21 22 23 24 25 26

000
FTUS41 KRLX 170801 AAA
TAFCKB
TAF AMD
KCKB 170801Z 1708/1806 00000KT 3SM BR SCT200
      TEMPO 1708/1712 2SM BR SCT002
     FM171300 VRB03KT P6SM SCT150
     FM171700 21005KT P6SM SCT050
     FM172200 21004KT 3SM TSRA BKN040CB
     FM180000 19004KT P6SM VCSH BKN040=

USA.gov is the U.S. government's official web portal to all federal, state and local government web resources and services.